sensor_id;sensor_type;location;lat;lon;timestamp;P1;durP1;ratioP1;P2;durP2;ratioP2
24090;SDS011;12272;52.426;17.100;2022-12-07T00:02:20;10.67;;;8.03;;
24090;SDS011;12272;52.426;17.100;2022-12-07T00:07:22;9.07;;;7.83;;
24090;SDS011;12272;52.426;17.100;2022-12-07T00:12:28;9.43;;;6.70;;
24090;SDS011;12272;52.426;17.100;2022-12-07T00:17:31;9.63;;;7.47;;
24090;SDS011;12272;52.426;17.100;2022-12-07T00:22:35;10.00;;;7.97;;
24090;SDS011;12272;52.426;17.100;2022-12-07T00:27:37;8.87;;;7.00;;
24090;SDS011;12272;52.426;17.100;2022-12-07T00:32:40;8.47;;;6.13;;
24090;SDS011;12272;52.426;17.100;2022-12-07T00:37:42;10.20;;;7.97;;
24090;SDS011;12272;52.426;17.100;2022-12-07T00:42:44;6.63;;;4.93;;
24090;SDS011;12272;52.426;17.100;2022-12-07T00:47:47;11.40;;;8.30;;
24090;SDS011;12272;52.426;17.100;2022-12-07T00:52:49;8.87;;;6.97;;
24090;SDS011;12272;52.426;17.100;2022-12-07T00:57:52;9.73;;;6.67;;
24090;SDS011;12272;52.426;17.100;2022-12-07T01:02:54;6.87;;;4.60;;
24090;SDS011;12272;52.426;17.100;2022-12-07T01:07:57;8.97;;;6.10;;
24090;SDS011;12272;52.426;17.100;2022-12-07T01:12:59;9.80;;;7.57;;
24090;SDS011;12272;52.426;17.100;2022-12-07T01:18:02;7.50;;;5.90;;
24090;SDS011;12272;52.426;17.100;2022-12-07T01:23:04;8.10;;;6.87;;
24090;SDS011;12272;52.426;17.100;2022-12-07T01:28:07;8.27;;;6.20;;
24090;SDS011;12272;52.426;17.100;2022-12-07T01:33:09;8.10;;;6.40;;
24090;SDS011;12272;52.426;17.100;2022-12-07T01:38:11;7.87;;;6.03;;
24090;SDS011;12272;52.426;17.100;2022-12-07T01:43:17;8.97;;;6.53;;
24090;SDS011;12272;52.426;17.100;2022-12-07T01:48:22;8.77;;;6.87;;
24090;SDS011;12272;52.426;17.100;2022-12-07T01:53:29;8.70;;;7.10;;
24090;SDS011;12272;52.426;17.100;2022-12-07T01:58:33;9.00;;;6.40;;
24090;SDS011;12272;52.426;17.100;2022-12-07T02:03:37;9.90;;;7.80;;
24090;SDS011;12272;52.426;17.100;2022-12-07T02:08:42;9.87;;;7.40;;
24090;SDS011;12272;52.426;17.100;2022-12-07T02:13:45;7.17;;;5.73;;
24090;SDS011;12272;52.426;17.100;2022-12-07T02:18:55;7.07;;;6.30;;
24090;SDS011;12272;52.426;17.100;2022-12-07T02:24:09;8.63;;;6.87;;
24090;SDS011;12272;52.426;17.100;2022-12-07T02:29:22;10.07;;;6.13;;
24090;SDS011;12272;52.426;17.100;2022-12-07T02:34:42;7.67;;;5.90;;
24090;SDS011;12272;52.426;17.100;2022-12-07T02:39:55;9.00;;;6.53;;
24090;SDS011;12272;52.426;17.100;2022-12-07T02:45:03;6.63;;;6.00;;
24090;SDS011;12272;52.426;17.100;2022-12-07T02:50:08;9.87;;;7.93;;
24090;SDS011;12272;52.426;17.100;2022-12-07T02:55:11;9.60;;;7.20;;
24090;SDS011;12272;52.426;17.100;2022-12-07T03:00:20;7.80;;;6.10;;
24090;SDS011;12272;52.426;17.100;2022-12-07T03:10:42;7.67;;;6.00;;
24090;SDS011;12272;52.426;17.100;2022-12-07T03:16:12;5.73;;;5.13;;
24090;SDS011;12272;52.426;17.100;2022-12-07T03:21:35;8.33;;;5.93;;
24090;SDS011;12272;52.426;17.100;2022-12-07T03:26:44;7.03;;;5.63;;
24090;SDS011;12272;52.426;17.100;2022-12-07T03:31:55;6.80;;;4.97;;
24090;SDS011;12272;52.426;17.100;2022-12-07T03:37:12;5.30;;;4.80;;
24090;SDS011;12272;52.426;17.100;2022-12-07T03:42:31;5.50;;;5.00;;
24090;SDS011;12272;52.426;17.100;2022-12-07T03:52:47;7.40;;;5.13;;
24090;SDS011;12272;52.426;17.100;2022-12-07T03:57:58;5.07;;;4.20;;
24090;SDS011;12272;52.426;17.100;2022-12-07T04:03:04;6.33;;;5.30;;
24090;SDS011;12272;52.426;17.100;2022-12-07T04:08:06;5.17;;;4.67;;
24090;SDS011;12272;52.426;17.100;2022-12-07T04:13:09;6.03;;;5.43;;
24090;SDS011;12272;52.426;17.100;2022-12-07T04:18:11;4.80;;;4.40;;
24090;SDS011;12272;52.426;17.100;2022-12-07T04:23:14;4.50;;;4.10;;
24090;SDS011;12272;52.426;17.100;2022-12-07T04:28:16;5.67;;;4.83;;
24090;SDS011;12272;52.426;17.100;2022-12-07T04:33:19;6.13;;;5.23;;
24090;SDS011;12272;52.426;17.100;2022-12-07T04:38:21;4.93;;;4.43;;
24090;SDS011;12272;52.426;17.100;2022-12-07T04:43:23;5.47;;;4.53;;
24090;SDS011;12272;52.426;17.100;2022-12-07T04:48:26;6.17;;;4.30;;
24090;SDS011;12272;52.426;17.100;2022-12-07T04:53:29;5.90;;;5.13;;
24090;SDS011;12272;52.426;17.100;2022-12-07T04:58:31;6.03;;;4.30;;
24090;SDS011;12272;52.426;17.100;2022-12-07T05:03:34;5.57;;;4.93;;
24090;SDS011;12272;52.426;17.100;2022-12-07T05:08:37;5.17;;;4.63;;
24090;SDS011;12272;52.426;17.100;2022-12-07T05:13:40;6.20;;;4.80;;
24090;SDS011;12272;52.426;17.100;2022-12-07T05:18:43;6.60;;;5.57;;
24090;SDS011;12272;52.426;17.100;2022-12-07T05:23:45;8.77;;;5.53;;
24090;SDS011;12272;52.426;17.100;2022-12-07T05:28:52;7.27;;;5.83;;
24090;SDS011;12272;52.426;17.100;2022-12-07T05:33:55;5.77;;;5.03;;
24090;SDS011;12272;52.426;17.100;2022-12-07T05:38:58;8.20;;;6.10;;
24090;SDS011;12272;52.426;17.100;2022-12-07T05:44:01;8.77;;;5.70;;
24090;SDS011;12272;52.426;17.100;2022-12-07T05:49:03;10.37;;;6.27;;
24090;SDS011;12272;52.426;17.100;2022-12-07T05:54:06;6.47;;;5.37;;
24090;SDS011;12272;52.426;17.100;2022-12-07T05:59:08;7.20;;;5.50;;
24090;SDS011;12272;52.426;17.100;2022-12-07T06:04:27;6.33;;;5.73;;
24090;SDS011;12272;52.426;17.100;2022-12-07T06:09:32;6.47;;;4.93;;
24090;SDS011;12272;52.426;17.100;2022-12-07T06:14:35;8.37;;;4.60;;
24090;SDS011;12272;52.426;17.100;2022-12-07T06:19:38;5.77;;;4.70;;
24090;SDS011;12272;52.426;17.100;2022-12-07T06:24:41;5.93;;;4.87;;
24090;SDS011;12272;52.426;17.100;2022-12-07T06:29:44;5.80;;;4.43;;
24090;SDS011;12272;52.426;17.100;2022-12-07T06:34:46;5.00;;;3.87;;
24090;SDS011;12272;52.426;17.100;2022-12-07T06:39:49;4.23;;;3.23;;
24090;SDS011;12272;52.426;17.100;2022-12-07T06:44:51;4.93;;;4.43;;
24090;SDS011;12272;52.426;17.100;2022-12-07T06:49:54;5.10;;;3.80;;
24090;SDS011;12272;52.426;17.100;2022-12-07T06:54:56;3.80;;;3.13;;
24090;SDS011;12272;52.426;17.100;2022-12-07T06:59:59;6.87;;;4.47;;
24090;SDS011;12272;52.426;17.100;2022-12-07T07:05:02;9.13;;;5.80;;
24090;SDS011;12272;52.426;17.100;2022-12-07T07:10:05;5.70;;;5.10;;
24090;SDS011;12272;52.426;17.100;2022-12-07T07:15:08;6.43;;;4.93;;
24090;SDS011;12272;52.426;17.100;2022-12-07T07:20:11;6.17;;;5.10;;
24090;SDS011;12272;52.426;17.100;2022-12-07T07:25:14;5.73;;;3.70;;
24090;SDS011;12272;52.426;17.100;2022-12-07T07:30:17;7.03;;;4.67;;
24090;SDS011;12272;52.426;17.100;2022-12-07T07:35:19;4.40;;;4.00;;
24090;SDS011;12272;52.426;17.100;2022-12-07T07:40:22;4.57;;;4.00;;
24090;SDS011;12272;52.426;17.100;2022-12-07T07:45:26;7.20;;;5.80;;
24090;SDS011;12272;52.426;17.100;2022-12-07T07:50:28;6.77;;;5.13;;
24090;SDS011;12272;52.426;17.100;2022-12-07T07:55:31;4.67;;;3.50;;
24090;SDS011;12272;52.426;17.100;2022-12-07T08:00:33;5.77;;;3.57;;
24090;SDS011;12272;52.426;17.100;2022-12-07T08:05:36;4.23;;;3.30;;
24090;SDS011;12272;52.426;17.100;2022-12-07T08:10:39;8.67;;;3.00;;
24090;SDS011;12272;52.426;17.100;2022-12-07T08:15:45;4.80;;;3.10;;
24090;SDS011;12272;52.426;17.100;2022-12-07T08:20:49;5.60;;;3.40;;
24090;SDS011;12272;52.426;17.100;2022-12-07T08:25:51;4.37;;;2.37;;
24090;SDS011;12272;52.426;17.100;2022-12-07T08:31:04;3.60;;;2.73;;
24090;SDS011;12272;52.426;17.100;2022-12-07T08:36:09;2.97;;;2.67;;
24090;SDS011;12272;52.426;17.100;2022-12-07T08:41:13;3.60;;;2.73;;
24090;SDS011;12272;52.426;17.100;2022-12-07T08:46:25;3.77;;;3.40;;
24090;SDS011;12272;52.426;17.100;2022-12-07T08:51:50;2.87;;;2.60;;
24090;SDS011;12272;52.426;17.100;2022-12-07T08:56:53;3.93;;;2.90;;
24090;SDS011;12272;52.426;17.100;2022-12-07T09:02:00;3.40;;;2.83;;
24090;SDS011;12272;52.426;17.100;2022-12-07T09:07:03;4.97;;;2.80;;
24090;SDS011;12272;52.426;17.100;2022-12-07T09:12:06;9.03;;;7.13;;
24090;SDS011;12272;52.426;17.100;2022-12-07T09:17:09;5.63;;;5.10;;
24090;SDS011;12272;52.426;17.100;2022-12-07T09:22:12;4.13;;;3.20;;
24090;SDS011;12272;52.426;17.100;2022-12-07T09:27:15;5.40;;;4.40;;
24090;SDS011;12272;52.426;17.100;2022-12-07T09:32:19;10.97;;;6.40;;
24090;SDS011;12272;52.426;17.100;2022-12-07T09:37:22;9.60;;;6.27;;
24090;SDS011;12272;52.426;17.100;2022-12-07T09:42:26;7.20;;;5.13;;
24090;SDS011;12272;52.426;17.100;2022-12-07T09:47:29;8.90;;;6.03;;
24090;SDS011;12272;52.426;17.100;2022-12-07T09:52:32;5.27;;;4.57;;
24090;SDS011;12272;52.426;17.100;2022-12-07T09:57:39;8.73;;;3.33;;
24090;SDS011;12272;52.426;17.100;2022-12-07T10:02:43;2.33;;;1.63;;
24090;SDS011;12272;52.426;17.100;2022-12-07T10:07:55;4.53;;;3.60;;
24090;SDS011;12272;52.426;17.100;2022-12-07T10:12:59;3.70;;;3.40;;
24090;SDS011;12272;52.426;17.100;2022-12-07T10:18:03;10.30;;;7.60;;
24090;SDS011;12272;52.426;17.100;2022-12-07T10:23:08;4.07;;;3.67;;
24090;SDS011;12272;52.426;17.100;2022-12-07T10:28:17;5.80;;;3.40;;
24090;SDS011;12272;52.426;17.100;2022-12-07T10:38:32;6.67;;;4.67;;
24090;SDS011;12272;52.426;17.100;2022-12-07T10:43:35;4.90;;;4.03;;
24090;SDS011;12272;52.426;17.100;2022-12-07T10:59:39;5.97;;;4.40;;
24090;SDS011;12272;52.426;17.100;2022-12-07T11:05:07;4.97;;;3.67;;
24090;SDS011;12272;52.426;17.100;2022-12-07T11:32:19;5.23;;;3.70;;
24090;SDS011;12272;52.426;17.100;2022-12-07T11:37:35;3.53;;;2.60;;
24090;SDS011;12272;52.426;17.100;2022-12-07T11:43:15;10.63;;;7.60;;
24090;SDS011;12272;52.426;17.100;2022-12-07T11:48:14;3.63;;;3.03;;
24090;SDS011;12272;52.426;17.100;2022-12-07T11:53:41;5.40;;;3.77;;
24090;SDS011;12272;52.426;17.100;2022-12-07T11:59:02;7.47;;;5.23;;
24090;SDS011;12272;52.426;17.100;2022-12-07T12:10:02;7.67;;;6.03;;
24090;SDS011;12272;52.426;17.100;2022-12-07T12:21:12;3.30;;;3.00;;
24090;SDS011;12272;52.426;17.100;2022-12-07T12:26:21;7.37;;;6.63;;
24090;SDS011;12272;52.426;17.100;2022-12-07T12:31:34;8.10;;;5.87;;
24090;SDS011;12272;52.426;17.100;2022-12-07T12:46:51;5.67;;;4.53;;
24090;SDS011;12272;52.426;17.100;2022-12-07T13:02:35;4.90;;;3.17;;
24090;SDS011;12272;52.426;17.100;2022-12-07T13:23:33;3.40;;;1.53;;
24090;SDS011;12272;52.426;17.100;2022-12-07T13:29:12;4.43;;;3.47;;
24090;SDS011;12272;52.426;17.100;2022-12-07T13:34:34;3.17;;;2.77;;
24090;SDS011;12272;52.426;17.100;2022-12-07T13:39:54;1.20;;;1.10;;
24090;SDS011;12272;52.426;17.100;2022-12-07T13:44:59;3.70;;;3.27;;
24090;SDS011;12272;52.426;17.100;2022-12-07T13:50:21;4.60;;;3.70;;
24090;SDS011;12272;52.426;17.100;2022-12-07T13:55:24;4.47;;;3.63;;
24090;SDS011;12272;52.426;17.100;2022-12-07T14:00:27;2.73;;;1.87;;
24090;SDS011;12272;52.426;17.100;2022-12-07T14:05:33;6.00;;;3.83;;
24090;SDS011;12272;52.426;17.100;2022-12-07T14:10:41;4.97;;;3.23;;
24090;SDS011;12272;52.426;17.100;2022-12-07T14:15:51;2.63;;;2.27;;
24090;SDS011;12272;52.426;17.100;2022-12-07T14:21:13;2.60;;;1.87;;
24090;SDS011;12272;52.426;17.100;2022-12-07T14:26:25;4.90;;;2.70;;
24090;SDS011;12272;52.426;17.100;2022-12-07T14:31:27;4.20;;;2.83;;
24090;SDS011;12272;52.426;17.100;2022-12-07T14:36:31;4.57;;;1.40;;
24090;SDS011;12272;52.426;17.100;2022-12-07T14:41:34;5.03;;;3.47;;
24090;SDS011;12272;52.426;17.100;2022-12-07T14:46:55;3.97;;;2.80;;
24090;SDS011;12272;52.426;17.100;2022-12-07T14:52:21;1.87;;;1.73;;
24090;SDS011;12272;52.426;17.100;2022-12-07T14:57:48;6.03;;;3.67;;
24090;SDS011;12272;52.426;17.100;2022-12-07T15:02:51;4.03;;;3.27;;
24090;SDS011;12272;52.426;17.100;2022-12-07T15:07:54;3.87;;;2.60;;
24090;SDS011;12272;52.426;17.100;2022-12-07T15:12:57;2.17;;;1.23;;
24090;SDS011;12272;52.426;17.100;2022-12-07T15:18:19;6.33;;;4.13;;
24090;SDS011;12272;52.426;17.100;2022-12-07T15:23:23;3.97;;;2.07;;
24090;SDS011;12272;52.426;17.100;2022-12-07T15:28:25;2.00;;;1.33;;
24090;SDS011;12272;52.426;17.100;2022-12-07T15:33:28;4.93;;;2.37;;
24090;SDS011;12272;52.426;17.100;2022-12-07T15:38:30;2.13;;;1.83;;
24090;SDS011;12272;52.426;17.100;2022-12-07T15:43:53;3.83;;;1.97;;
24090;SDS011;12272;52.426;17.100;2022-12-07T15:49:15;2.23;;;2.03;;
24090;SDS011;12272;52.426;17.100;2022-12-07T15:54:20;1.63;;;1.13;;
24090;SDS011;12272;52.426;17.100;2022-12-07T15:59:25;5.17;;;3.37;;
24090;SDS011;12272;52.426;17.100;2022-12-07T16:04:28;4.67;;;2.70;;
24090;SDS011;12272;52.426;17.100;2022-12-07T16:09:31;4.50;;;1.93;;
24090;SDS011;12272;52.426;17.100;2022-12-07T16:14:34;3.13;;;2.67;;
24090;SDS011;12272;52.426;17.100;2022-12-07T16:19:37;1.90;;;1.47;;
24090;SDS011;12272;52.426;17.100;2022-12-07T16:24:40;3.33;;;2.63;;
24090;SDS011;12272;52.426;17.100;2022-12-07T16:29:42;1.30;;;0.90;;
24090;SDS011;12272;52.426;17.100;2022-12-07T16:34:45;1.40;;;1.13;;
24090;SDS011;12272;52.426;17.100;2022-12-07T16:39:47;3.07;;;2.17;;
24090;SDS011;12272;52.426;17.100;2022-12-07T16:44:49;0.83;;;0.47;;
24090;SDS011;12272;52.426;17.100;2022-12-07T16:49:52;3.67;;;2.47;;
24090;SDS011;12272;52.426;17.100;2022-12-07T16:54:54;5.10;;;3.40;;
24090;SDS011;12272;52.426;17.100;2022-12-07T16:59:57;9.30;;;6.27;;
24090;SDS011;12272;52.426;17.100;2022-12-07T17:04:59;2.77;;;1.40;;
24090;SDS011;12272;52.426;17.100;2022-12-07T17:10:02;4.83;;;3.60;;
24090;SDS011;12272;52.426;17.100;2022-12-07T17:15:05;5.60;;;2.13;;
24090;SDS011;12272;52.426;17.100;2022-12-07T17:20:21;5.30;;;3.37;;
24090;SDS011;12272;52.426;17.100;2022-12-07T17:25:25;6.50;;;3.47;;
24090;SDS011;12272;52.426;17.100;2022-12-07T17:30:27;4.90;;;3.20;;
24090;SDS011;12272;52.426;17.100;2022-12-07T17:35:30;5.83;;;4.13;;
24090;SDS011;12272;52.426;17.100;2022-12-07T17:40:32;3.33;;;2.47;;
24090;SDS011;12272;52.426;17.100;2022-12-07T17:45:35;4.57;;;3.37;;
24090;SDS011;12272;52.426;17.100;2022-12-07T17:50:39;4.83;;;3.73;;
24090;SDS011;12272;52.426;17.100;2022-12-07T17:55:59;18.93;;;11.17;;
24090;SDS011;12272;52.426;17.100;2022-12-07T18:01:22;16.20;;;8.77;;
24090;SDS011;12272;52.426;17.100;2022-12-07T18:06:26;11.33;;;7.07;;
24090;SDS011;12272;52.426;17.100;2022-12-07T18:11:29;14.67;;;7.87;;
24090;SDS011;12272;52.426;17.100;2022-12-07T18:16:32;12.63;;;6.97;;
24090;SDS011;12272;52.426;17.100;2022-12-07T18:21:36;13.90;;;7.60;;
24090;SDS011;12272;52.426;17.100;2022-12-07T18:26:39;13.87;;;6.70;;
24090;SDS011;12272;52.426;17.100;2022-12-07T18:31:42;8.87;;;6.23;;
24090;SDS011;12272;52.426;17.100;2022-12-07T18:36:48;15.50;;;6.83;;
24090;SDS011;12272;52.426;17.100;2022-12-07T18:41:51;19.40;;;11.50;;
24090;SDS011;12272;52.426;17.100;2022-12-07T18:46:53;17.83;;;10.60;;
24090;SDS011;12272;52.426;17.100;2022-12-07T18:51:56;17.97;;;10.60;;
24090;SDS011;12272;52.426;17.100;2022-12-07T18:56:59;18.90;;;11.47;;
24090;SDS011;12272;52.426;17.100;2022-12-07T19:02:01;19.00;;;10.73;;
24090;SDS011;12272;52.426;17.100;2022-12-07T19:07:04;17.70;;;9.23;;
24090;SDS011;12272;52.426;17.100;2022-12-07T19:12:08;17.70;;;10.50;;
24090;SDS011;12272;52.426;17.100;2022-12-07T19:17:14;7.50;;;3.23;;
24090;SDS011;12272;52.426;17.100;2022-12-07T19:22:18;10.43;;;4.53;;
24090;SDS011;12272;52.426;17.100;2022-12-07T19:27:22;5.67;;;4.00;;
24090;SDS011;12272;52.426;17.100;2022-12-07T19:32:25;7.97;;;4.03;;
24090;SDS011;12272;52.426;17.100;2022-12-07T19:37:29;10.80;;;5.50;;
24090;SDS011;12272;52.426;17.100;2022-12-07T19:42:31;8.80;;;5.33;;
24090;SDS011;12272;52.426;17.100;2022-12-07T19:47:36;10.10;;;6.13;;
24090;SDS011;12272;52.426;17.100;2022-12-07T19:52:39;7.70;;;4.60;;
24090;SDS011;12272;52.426;17.100;2022-12-07T19:57:41;13.53;;;8.73;;
24090;SDS011;12272;52.426;17.100;2022-12-07T20:02:43;17.13;;;10.13;;
24090;SDS011;12272;52.426;17.100;2022-12-07T20:07:46;15.90;;;9.50;;
24090;SDS011;12272;52.426;17.100;2022-12-07T20:12:56;15.70;;;8.20;;
24090;SDS011;12272;52.426;17.100;2022-12-07T20:18:20;15.40;;;9.33;;
24090;SDS011;12272;52.426;17.100;2022-12-07T20:23:23;13.10;;;9.40;;
24090;SDS011;12272;52.426;17.100;2022-12-07T20:28:34;13.43;;;8.93;;
24090;SDS011;12272;52.426;17.100;2022-12-07T20:33:37;18.80;;;9.40;;
24090;SDS011;12272;52.426;17.100;2022-12-07T20:38:39;18.97;;;8.90;;
24090;SDS011;12272;52.426;17.100;2022-12-07T20:43:43;19.20;;;10.10;;
24090;SDS011;12272;52.426;17.100;2022-12-07T20:48:45;18.27;;;9.57;;
24090;SDS011;12272;52.426;17.100;2022-12-07T20:53:47;16.27;;;9.43;;
24090;SDS011;12272;52.426;17.100;2022-12-07T20:58:50;18.27;;;8.87;;
24090;SDS011;12272;52.426;17.100;2022-12-07T21:03:53;18.13;;;10.30;;
24090;SDS011;12272;52.426;17.100;2022-12-07T21:08:57;15.07;;;9.23;;
24090;SDS011;12272;52.426;17.100;2022-12-07T21:14:00;15.30;;;7.87;;
24090;SDS011;12272;52.426;17.100;2022-12-07T21:19:03;12.73;;;6.83;;
24090;SDS011;12272;52.426;17.100;2022-12-07T21:24:06;8.87;;;4.73;;
24090;SDS011;12272;52.426;17.100;2022-12-07T21:29:09;10.30;;;5.43;;
24090;SDS011;12272;52.426;17.100;2022-12-07T21:34:11;14.33;;;7.83;;
24090;SDS011;12272;52.426;17.100;2022-12-07T21:39:14;12.77;;;5.67;;
24090;SDS011;12272;52.426;17.100;2022-12-07T21:44:16;5.20;;;3.83;;
24090;SDS011;12272;52.426;17.100;2022-12-07T21:49:18;13.60;;;4.87;;
24090;SDS011;12272;52.426;17.100;2022-12-07T21:54:21;10.17;;;3.90;;
24090;SDS011;12272;52.426;17.100;2022-12-07T21:59:27;7.10;;;3.90;;
24090;SDS011;12272;52.426;17.100;2022-12-07T22:04:29;7.47;;;3.83;;
24090;SDS011;12272;52.426;17.100;2022-12-07T22:09:32;8.00;;;5.07;;
24090;SDS011;12272;52.426;17.100;2022-12-07T22:14:34;7.03;;;3.93;;
24090;SDS011;12272;52.426;17.100;2022-12-07T22:19:55;6.80;;;3.83;;
24090;SDS011;12272;52.426;17.100;2022-12-07T22:24:58;6.17;;;3.90;;
24090;SDS011;12272;52.426;17.100;2022-12-07T22:30:01;6.07;;;3.57;;
24090;SDS011;12272;52.426;17.100;2022-12-07T22:35:04;8.63;;;4.57;;
24090;SDS011;12272;52.426;17.100;2022-12-07T22:40:07;5.47;;;3.97;;
24090;SDS011;12272;52.426;17.100;2022-12-07T22:45:10;8.90;;;4.40;;
24090;SDS011;12272;52.426;17.100;2022-12-07T22:50:12;9.63;;;4.57;;
24090;SDS011;12272;52.426;17.100;2022-12-07T22:55:14;8.63;;;3.83;;
24090;SDS011;12272;52.426;17.100;2022-12-07T23:00:17;10.37;;;4.77;;
24090;SDS011;12272;52.426;17.100;2022-12-07T23:05:20;8.67;;;3.53;;
24090;SDS011;12272;52.426;17.100;2022-12-07T23:10:22;7.93;;;3.57;;
24090;SDS011;12272;52.426;17.100;2022-12-07T23:15:25;3.93;;;2.50;;
24090;SDS011;12272;52.426;17.100;2022-12-07T23:20:27;11.53;;;4.23;;
24090;SDS011;12272;52.426;17.100;2022-12-07T23:25:31;7.37;;;3.80;;
24090;SDS011;12272;52.426;17.100;2022-12-07T23:30:33;8.23;;;3.77;;
24090;SDS011;12272;52.426;17.100;2022-12-07T23:35:36;5.93;;;2.67;;
24090;SDS011;12272;52.426;17.100;2022-12-07T23:40:38;5.40;;;1.87;;
24090;SDS011;12272;52.426;17.100;2022-12-07T23:45:43;6.37;;;2.57;;
24090;SDS011;12272;52.426;17.100;2022-12-07T23:50:47;9.10;;;2.73;;
24090;SDS011;12272;52.426;17.100;2022-12-07T23:55:49;4.37;;;2.37;;
